sensor_id;sensor_type;location;lat;lon;timestamp;temperature;humidity
23744;DHT22;12052;53.478;10.182;2024-03-08T00:02:00;1.80;99.90
23744;DHT22;12052;53.478;10.182;2024-03-08T00:04:25;1.80;99.90
23744;DHT22;12052;53.478;10.182;2024-03-08T00:06:51;1.80;99.90
23744;DHT22;12052;53.478;10.182;2024-03-08T00:09:17;1.80;99.90
23744;DHT22;12052;53.478;10.182;2024-03-08T00:11:43;1.70;99.90
23744;DHT22;12052;53.478;10.182;2024-03-08T00:14:08;1.70;99.90
23744;DHT22;12052;53.478;10.182;2024-03-08T00:16:34;1.70;99.90
23744;DHT22;12052;53.478;10.182;2024-03-08T00:19:01;1.70;99.90
23744;DHT22;12052;53.478;10.182;2024-03-08T00:21:26;1.70;99.90
23744;DHT22;12052;53.478;10.182;2024-03-08T00:23:53;1.60;99.90
23744;DHT22;12052;53.478;10.182;2024-03-08T00:26:21;1.60;99.90
23744;DHT22;12052;53.478;10.182;2024-03-08T00:28:49;1.60;99.90
23744;DHT22;12052;53.478;10.182;2024-03-08T00:31:15;1.60;99.90
23744;DHT22;12052;53.478;10.182;2024-03-08T00:33:43;1.60;99.90
23744;DHT22;12052;53.478;10.182;2024-03-08T00:36:09;1.60;99.90
23744;DHT22;12052;53.478;10.182;2024-03-08T00:38:34;1.60;99.90
23744;DHT22;12052;53.478;10.182;2024-03-08T00:41:00;1.60;99.90
23744;DHT22;12052;53.478;10.182;2024-03-08T00:43:26;1.60;99.90
23744;DHT22;12052;53.478;10.182;2024-03-08T00:45:51;1.60;99.90
23744;DHT22;12052;53.478;10.182;2024-03-08T00:48:17;1.50;99.90
23744;DHT22;12052;53.478;10.182;2024-03-08T00:50:43;1.50;99.90
23744;DHT22;12052;53.478;10.182;2024-03-08T00:53:11;1.50;99.90
23744;DHT22;12052;53.478;10.182;2024-03-08T00:55:37;1.50;99.90
23744;DHT22;12052;53.478;10.182;2024-03-08T00:58:05;1.50;99.90
23744;DHT22;12052;53.478;10.182;2024-03-08T01:00:31;1.50;99.90
23744;DHT22;12052;53.478;10.182;2024-03-08T01:02:56;1.40;99.90
23744;DHT22;12052;53.478;10.182;2024-03-08T01:05:23;1.40;99.90
23744;DHT22;12052;53.478;10.182;2024-03-08T01:07:50;1.40;99.90
23744;DHT22;12052;53.478;10.182;2024-03-08T01:10:16;1.40;99.90
23744;DHT22;12052;53.478;10.182;2024-03-08T01:12:41;1.40;99.90
23744;DHT22;12052;53.478;10.182;2024-03-08T01:15:09;1.40;99.90
23744;DHT22;12052;53.478;10.182;2024-03-08T01:17:35;1.40;99.90
23744;DHT22;12052;53.478;10.182;2024-03-08T01:20:02;1.30;99.90
23744;DHT22;12052;53.478;10.182;2024-03-08T01:22:28;1.30;99.90
23744;DHT22;12052;53.478;10.182;2024-03-08T01:24:55;1.30;99.90
23744;DHT22;12052;53.478;10.182;2024-03-08T01:27:21;1.30;99.90
23744;DHT22;12052;53.478;10.182;2024-03-08T01:29:46;1.20;99.90
23744;DHT22;12052;53.478;10.182;2024-03-08T01:32:12;1.20;99.90
23744;DHT22;12052;53.478;10.182;2024-03-08T01:34:37;1.20;99.90
23744;DHT22;12052;53.478;10.182;2024-03-08T01:37:03;1.20;99.90
23744;DHT22;12052;53.478;10.182;2024-03-08T01:39:29;1.20;99.90
23744;DHT22;12052;53.478;10.182;2024-03-08T01:41:54;1.10;99.90
23744;DHT22;12052;53.478;10.182;2024-03-08T01:44:20;1.10;99.90
23744;DHT22;12052;53.478;10.182;2024-03-08T01:46:47;1.10;99.90
23744;DHT22;12052;53.478;10.182;2024-03-08T01:49:14;1.10;99.90
23744;DHT22;12052;53.478;10.182;2024-03-08T01:51:41;1.00;99.90
23744;DHT22;12052;53.478;10.182;2024-03-08T01:54:07;1.00;99.90
23744;DHT22;12052;53.478;10.182;2024-03-08T01:56:36;1.00;99.90
23744;DHT22;12052;53.478;10.182;2024-03-08T01:59:03;1.00;99.90
23744;DHT22;12052;53.478;10.182;2024-03-08T02:01:29;1.00;99.90
23744;DHT22;12052;53.478;10.182;2024-03-08T02:03:55;1.00;99.90
23744;DHT22;12052;53.478;10.182;2024-03-08T02:06:20;0.90;99.90
23744;DHT22;12052;53.478;10.182;2024-03-08T02:08:46;0.90;99.90
23744;DHT22;12052;53.478;10.182;2024-03-08T02:11:12;0.90;99.90
23744;DHT22;12052;53.478;10.182;2024-03-08T02:13:38;0.90;99.90
23744;DHT22;12052;53.478;10.182;2024-03-08T02:16:04;0.90;99.90
23744;DHT22;12052;53.478;10.182;2024-03-08T02:18:35;0.90;99.90
23744;DHT22;12052;53.478;10.182;2024-03-08T02:21:02;0.90;99.90
23744;DHT22;12052;53.478;10.182;2024-03-08T02:23:28;0.80;99.90
23744;DHT22;12052;53.478;10.182;2024-03-08T02:25:56;0.80;99.90
23744;DHT22;12052;53.478;10.182;2024-03-08T02:28:22;0.80;99.90
23744;DHT22;12052;53.478;10.182;2024-03-08T02:30:51;0.80;99.90
23744;DHT22;12052;53.478;10.182;2024-03-08T02:33:21;0.80;99.90
23744;DHT22;12052;53.478;10.182;2024-03-08T02:35:48;0.80;99.90
23744;DHT22;12052;53.478;10.182;2024-03-08T02:38:15;0.70;99.90
23744;DHT22;12052;53.478;10.182;2024-03-08T02:40:42;0.70;99.90
23744;DHT22;12052;53.478;10.182;2024-03-08T02:43:09;0.70;99.90
23744;DHT22;12052;53.478;10.182;2024-03-08T02:45:35;0.70;99.90
23744;DHT22;12052;53.478;10.182;2024-03-08T02:48:00;0.70;99.90
23744;DHT22;12052;53.478;10.182;2024-03-08T02:50:26;0.70;99.90
23744;DHT22;12052;53.478;10.182;2024-03-08T02:52:52;0.70;99.90
23744;DHT22;12052;53.478;10.182;2024-03-08T02:55:18;0.60;99.90
23744;DHT22;12052;53.478;10.182;2024-03-08T02:57:43;0.60;99.90
23744;DHT22;12052;53.478;10.182;2024-03-08T03:00:10;0.60;99.90
23744;DHT22;12052;53.478;10.182;2024-03-08T03:02:36;0.60;99.90
23744;DHT22;12052;53.478;10.182;2024-03-08T03:05:03;0.50;99.90
23744;DHT22;12052;53.478;10.182;2024-03-08T03:07:34;0.50;99.90
23744;DHT22;12052;53.478;10.182;2024-03-08T03:10:00;0.50;99.90
23744;DHT22;12052;53.478;10.182;2024-03-08T03:12:29;0.50;99.90
23744;DHT22;12052;53.478;10.182;2024-03-08T03:14:55;0.50;99.90
23744;DHT22;12052;53.478;10.182;2024-03-08T03:17:22;0.50;99.90
23744;DHT22;12052;53.478;10.182;2024-03-08T03:19:48;0.40;99.90
23744;DHT22;12052;53.478;10.182;2024-03-08T03:22:13;0.40;99.90
23744;DHT22;12052;53.478;10.182;2024-03-08T03:24:41;0.40;99.90
23744;DHT22;12052;53.478;10.182;2024-03-08T03:27:07;0.40;99.90
23744;DHT22;12052;53.478;10.182;2024-03-08T03:29:39;0.40;99.90
23744;DHT22;12052;53.478;10.182;2024-03-08T03:32:11;0.40;99.90
23744;DHT22;12052;53.478;10.182;2024-03-08T03:34:37;0.40;99.90
23744;DHT22;12052;53.478;10.182;2024-03-08T03:37:03;0.40;99.90
23744;DHT22;12052;53.478;10.182;2024-03-08T03:39:30;0.40;99.90
23744;DHT22;12052;53.478;10.182;2024-03-08T03:41:57;0.40;99.90
23744;DHT22;12052;53.478;10.182;2024-03-08T03:44:23;0.40;99.90
23744;DHT22;12052;53.478;10.182;2024-03-08T03:46:49;0.40;99.90
23744;DHT22;12052;53.478;10.182;2024-03-08T03:49:16;0.30;99.90
23744;DHT22;12052;53.478;10.182;2024-03-08T03:51:42;0.30;99.90
23744;DHT22;12052;53.478;10.182;2024-03-08T03:54:08;0.30;99.90
23744;DHT22;12052;53.478;10.182;2024-03-08T03:56:34;0.30;99.90
23744;DHT22;12052;53.478;10.182;2024-03-08T03:58:59;0.30;99.90
23744;DHT22;12052;53.478;10.182;2024-03-08T04:01:25;0.20;99.90
23744;DHT22;12052;53.478;10.182;2024-03-08T04:03:50;0.20;99.90
23744;DHT22;12052;53.478;10.182;2024-03-08T04:06:16;0.20;99.90
23744;DHT22;12052;53.478;10.182;2024-03-08T04:08:41;0.20;99.90
23744;DHT22;12052;53.478;10.182;2024-03-08T04:11:07;0.20;99.90
23744;DHT22;12052;53.478;10.182;2024-03-08T04:13:36;0.20;99.90
23744;DHT22;12052;53.478;10.182;2024-03-08T04:16:02;0.10;99.90
23744;DHT22;12052;53.478;10.182;2024-03-08T04:18:28;0.10;99.90
23744;DHT22;12052;53.478;10.182;2024-03-08T04:20:53;0.10;99.90
23744;DHT22;12052;53.478;10.182;2024-03-08T04:23:19;0.10;99.90
23744;DHT22;12052;53.478;10.182;2024-03-08T04:25:45;0.10;99.90
23744;DHT22;12052;53.478;10.182;2024-03-08T04:28:10;0.10;99.90
23744;DHT22;12052;53.478;10.182;2024-03-08T04:30:40;0.10;99.90
23744;DHT22;12052;53.478;10.182;2024-03-08T04:33:06;0.00;99.90
23744;DHT22;12052;53.478;10.182;2024-03-08T04:35:32;0.00;99.90
23744;DHT22;12052;53.478;10.182;2024-03-08T04:37:58;0.00;99.90
23744;DHT22;12052;53.478;10.182;2024-03-08T04:40:24;0.00;99.90
23744;DHT22;12052;53.478;10.182;2024-03-08T04:42:50;0.00;99.90
23744;DHT22;12052;53.478;10.182;2024-03-08T04:45:16;0.00;99.90
23744;DHT22;12052;53.478;10.182;2024-03-08T04:47:42;-0.10;99.90
23744;DHT22;12052;53.478;10.182;2024-03-08T04:50:08;-0.10;99.90
23744;DHT22;12052;53.478;10.182;2024-03-08T04:52:34;-0.10;99.90
23744;DHT22;12052;53.478;10.182;2024-03-08T04:55:01;-0.10;99.90
23744;DHT22;12052;53.478;10.182;2024-03-08T04:57:29;-0.10;99.90
23744;DHT22;12052;53.478;10.182;2024-03-08T04:59:55;-0.10;99.90
23744;DHT22;12052;53.478;10.182;2024-03-08T05:02:21;-0.10;99.90
23744;DHT22;12052;53.478;10.182;2024-03-08T05:04:48;-0.10;99.90
23744;DHT22;12052;53.478;10.182;2024-03-08T05:07:13;-0.10;99.90
23744;DHT22;12052;53.478;10.182;2024-03-08T05:09:39;-0.10;99.90
23744;DHT22;12052;53.478;10.182;2024-03-08T05:12:06;-0.10;99.90
23744;DHT22;12052;53.478;10.182;2024-03-08T05:14:33;-0.10;99.90
23744;DHT22;12052;53.478;10.182;2024-03-08T05:17:00;-0.10;99.90
23744;DHT22;12052;53.478;10.182;2024-03-08T05:19:26;-0.10;99.90
23744;DHT22;12052;53.478;10.182;2024-03-08T05:21:51;-0.20;99.90
23744;DHT22;12052;53.478;10.182;2024-03-08T05:24:18;-0.10;99.90
23744;DHT22;12052;53.478;10.182;2024-03-08T05:26:44;-0.20;99.90
23744;DHT22;12052;53.478;10.182;2024-03-08T05:29:10;-0.20;99.90
23744;DHT22;12052;53.478;10.182;2024-03-08T05:31:46;-0.20;99.90
23744;DHT22;12052;53.478;10.182;2024-03-08T05:34:12;-0.10;99.90
23744;DHT22;12052;53.478;10.182;2024-03-08T05:36:41;-0.20;99.90
23744;DHT22;12052;53.478;10.182;2024-03-08T05:39:10;-0.20;99.90
23744;DHT22;12052;53.478;10.182;2024-03-08T05:41:38;-0.20;99.90
23744;DHT22;12052;53.478;10.182;2024-03-08T05:44:04;-0.20;99.90
23744;DHT22;12052;53.478;10.182;2024-03-08T05:46:29;-0.20;99.90
23744;DHT22;12052;53.478;10.182;2024-03-08T05:48:55;-0.20;99.90
23744;DHT22;12052;53.478;10.182;2024-03-08T05:51:23;-0.20;99.90
23744;DHT22;12052;53.478;10.182;2024-03-08T05:53:49;-0.30;99.90
23744;DHT22;12052;53.478;10.182;2024-03-08T05:56:15;-0.20;99.90
23744;DHT22;12052;53.478;10.182;2024-03-08T05:58:40;-0.20;99.90
23744;DHT22;12052;53.478;10.182;2024-03-08T06:01:06;-0.20;99.90
23744;DHT22;12052;53.478;10.182;2024-03-08T06:03:34;-0.20;99.90
23744;DHT22;12052;53.478;10.182;2024-03-08T06:05:59;-0.20;99.90
23744;DHT22;12052;53.478;10.182;2024-03-08T06:08:25;-0.20;99.90
23744;DHT22;12052;53.478;10.182;2024-03-08T06:10:55;-0.20;99.90
23744;DHT22;12052;53.478;10.182;2024-03-08T06:13:21;-0.20;99.90
23744;DHT22;12052;53.478;10.182;2024-03-08T06:15:47;-0.20;99.90
23744;DHT22;12052;53.478;10.182;2024-03-08T06:18:12;-0.20;99.90
23744;DHT22;12052;53.478;10.182;2024-03-08T06:20:38;-0.20;99.90
23744;DHT22;12052;53.478;10.182;2024-03-08T06:23:03;-0.10;99.90
23744;DHT22;12052;53.478;10.182;2024-03-08T06:25:29;-0.10;99.90
23744;DHT22;12052;53.478;10.182;2024-03-08T06:27:55;-0.10;99.90
23744;DHT22;12052;53.478;10.182;2024-03-08T06:30:20;-0.10;99.90
23744;DHT22;12052;53.478;10.182;2024-03-08T06:32:46;0.00;99.90
23744;DHT22;12052;53.478;10.182;2024-03-08T06:35:12;0.00;99.90
23744;DHT22;12052;53.478;10.182;2024-03-08T06:37:38;0.00;99.90
23744;DHT22;12052;53.478;10.182;2024-03-08T06:40:04;0.10;99.90
23744;DHT22;12052;53.478;10.182;2024-03-08T06:42:30;0.10;99.90
23744;DHT22;12052;53.478;10.182;2024-03-08T06:45:01;0.20;99.90
23744;DHT22;12052;53.478;10.182;2024-03-08T06:47:31;0.30;99.90
23744;DHT22;12052;53.478;10.182;2024-03-08T06:49:57;0.40;99.90
23744;DHT22;12052;53.478;10.182;2024-03-08T06:52:22;0.50;99.90
23744;DHT22;12052;53.478;10.182;2024-03-08T06:54:48;0.70;99.90
23744;DHT22;12052;53.478;10.182;2024-03-08T06:57:14;0.80;99.90
23744;DHT22;12052;53.478;10.182;2024-03-08T06:59:42;0.90;99.90
23744;DHT22;12052;53.478;10.182;2024-03-08T07:02:07;1.00;99.90
23744;DHT22;12052;53.478;10.182;2024-03-08T07:04:35;1.10;99.90
23744;DHT22;12052;53.478;10.182;2024-03-08T07:07:04;1.30;99.90
23744;DHT22;12052;53.478;10.182;2024-03-08T07:09:29;1.40;99.90
23744;DHT22;12052;53.478;10.182;2024-03-08T07:11:55;1.50;99.90
23744;DHT22;12052;53.478;10.182;2024-03-08T07:14:24;1.60;99.90
23744;DHT22;12052;53.478;10.182;2024-03-08T07:16:50;1.70;99.90
23744;DHT22;12052;53.478;10.182;2024-03-08T07:19:16;1.80;99.90
23744;DHT22;12052;53.478;10.182;2024-03-08T07:21:43;1.90;99.90
23744;DHT22;12052;53.478;10.182;2024-03-08T07:24:10;1.90;99.90
23744;DHT22;12052;53.478;10.182;2024-03-08T07:26:55;2.00;99.90
23744;DHT22;12052;53.478;10.182;2024-03-08T07:29:22;2.20;99.90
23744;DHT22;12052;53.478;10.182;2024-03-08T07:31:48;2.20;99.90
23744;DHT22;12052;53.478;10.182;2024-03-08T07:34:21;2.30;99.90
23744;DHT22;12052;53.478;10.182;2024-03-08T07:36:47;2.40;99.90
23744;DHT22;12052;53.478;10.182;2024-03-08T07:39:12;2.50;99.90
23744;DHT22;12052;53.478;10.182;2024-03-08T07:41:39;2.60;99.90
23744;DHT22;12052;53.478;10.182;2024-03-08T07:44:07;2.80;99.90
23744;DHT22;12052;53.478;10.182;2024-03-08T07:46:33;2.90;99.90
23744;DHT22;12052;53.478;10.182;2024-03-08T07:49:03;3.00;99.90
23744;DHT22;12052;53.478;10.182;2024-03-08T07:51:28;3.20;99.90
23744;DHT22;12052;53.478;10.182;2024-03-08T07:53:54;3.30;99.90
23744;DHT22;12052;53.478;10.182;2024-03-08T07:56:20;3.40;99.90
23744;DHT22;12052;53.478;10.182;2024-03-08T07:58:47;3.60;99.90
23744;DHT22;12052;53.478;10.182;2024-03-08T08:01:20;3.60;99.90
23744;DHT22;12052;53.478;10.182;2024-03-08T08:03:45;3.70;99.90
23744;DHT22;12052;53.478;10.182;2024-03-08T08:06:11;3.90;99.90
23744;DHT22;12052;53.478;10.182;2024-03-08T08:08:46;4.00;99.90
23744;DHT22;12052;53.478;10.182;2024-03-08T08:11:12;4.10;99.90
23744;DHT22;12052;53.478;10.182;2024-03-08T08:13:38;4.20;99.90
23744;DHT22;12052;53.478;10.182;2024-03-08T08:16:04;4.30;99.90
23744;DHT22;12052;53.478;10.182;2024-03-08T08:18:31;4.40;99.90
23744;DHT22;12052;53.478;10.182;2024-03-08T08:20:58;4.70;99.90
23744;DHT22;12052;53.478;10.182;2024-03-08T08:23:25;4.80;99.90
23744;DHT22;12052;53.478;10.182;2024-03-08T08:25:51;4.90;99.90
23744;DHT22;12052;53.478;10.182;2024-03-08T08:28:17;5.00;99.90
23744;DHT22;12052;53.478;10.182;2024-03-08T08:30:44;5.00;99.90
23744;DHT22;12052;53.478;10.182;2024-03-08T08:33:10;5.10;99.90
23744;DHT22;12052;53.478;10.182;2024-03-08T08:35:36;5.10;99.90
23744;DHT22;12052;53.478;10.182;2024-03-08T08:38:05;5.10;99.90
23744;DHT22;12052;53.478;10.182;2024-03-08T08:40:34;5.20;99.90
23744;DHT22;12052;53.478;10.182;2024-03-08T08:43:01;5.40;99.90
23744;DHT22;12052;53.478;10.182;2024-03-08T08:45:30;5.50;99.90
23744;DHT22;12052;53.478;10.182;2024-03-08T08:47:56;5.60;99.90
23744;DHT22;12052;53.478;10.182;2024-03-08T08:50:22;5.50;99.90
23744;DHT22;12052;53.478;10.182;2024-03-08T08:52:52;5.50;99.90
23744;DHT22;12052;53.478;10.182;2024-03-08T08:55:18;5.70;99.90
23744;DHT22;12052;53.478;10.182;2024-03-08T08:57:47;5.70;99.90
23744;DHT22;12052;53.478;10.182;2024-03-08T09:00:13;5.90;99.90
23744;DHT22;12052;53.478;10.182;2024-03-08T09:02:43;5.70;99.90
23744;DHT22;12052;53.478;10.182;2024-03-08T09:05:09;5.60;99.90
23744;DHT22;12052;53.478;10.182;2024-03-08T09:07:34;5.80;99.90
23744;DHT22;12052;53.478;10.182;2024-03-08T09:10:00;6.10;99.90
23744;DHT22;12052;53.478;10.182;2024-03-08T09:12:26;6.00;99.90
23744;DHT22;12052;53.478;10.182;2024-03-08T09:14:52;6.00;99.90
23744;DHT22;12052;53.478;10.182;2024-03-08T09:17:18;6.10;99.90
23744;DHT22;12052;53.478;10.182;2024-03-08T09:19:46;6.20;99.90
23744;DHT22;12052;53.478;10.182;2024-03-08T09:22:13;6.40;99.90
23744;DHT22;12052;53.478;10.182;2024-03-08T09:24:38;6.50;99.90
23744;DHT22;12052;53.478;10.182;2024-03-08T09:27:04;6.60;99.90
23744;DHT22;12052;53.478;10.182;2024-03-08T09:29:30;6.70;99.90
23744;DHT22;12052;53.478;10.182;2024-03-08T09:31:56;6.70;99.90
23744;DHT22;12052;53.478;10.182;2024-03-08T09:34:21;6.80;99.90
23744;DHT22;12052;53.478;10.182;2024-03-08T09:36:47;7.00;99.90
23744;DHT22;12052;53.478;10.182;2024-03-08T09:39:12;7.20;99.90
23744;DHT22;12052;53.478;10.182;2024-03-08T09:41:45;6.90;99.90
23744;DHT22;12052;53.478;10.182;2024-03-08T09:44:13;7.00;99.90
23744;DHT22;12052;53.478;10.182;2024-03-08T09:46:40;7.20;99.90
23744;DHT22;12052;53.478;10.182;2024-03-08T09:49:06;7.10;99.90
23744;DHT22;12052;53.478;10.182;2024-03-08T09:51:34;7.00;99.90
23744;DHT22;12052;53.478;10.182;2024-03-08T09:54:01;7.20;99.90
23744;DHT22;12052;53.478;10.182;2024-03-08T09:56:32;7.30;99.90
23744;DHT22;12052;53.478;10.182;2024-03-08T09:58:59;7.50;99.90
23744;DHT22;12052;53.478;10.182;2024-03-08T10:01:36;7.60;99.90
23744;DHT22;12052;53.478;10.182;2024-03-08T10:04:04;7.80;99.90
23744;DHT22;12052;53.478;10.182;2024-03-08T10:06:29;7.70;99.90
23744;DHT22;12052;53.478;10.182;2024-03-08T10:08:56;7.70;99.90
23744;DHT22;12052;53.478;10.182;2024-03-08T10:11:22;7.80;99.90
23744;DHT22;12052;53.478;10.182;2024-03-08T10:13:50;7.90;99.90
23744;DHT22;12052;53.478;10.182;2024-03-08T10:16:16;8.10;99.90
23744;DHT22;12052;53.478;10.182;2024-03-08T10:18:47;8.00;99.90
23744;DHT22;12052;53.478;10.182;2024-03-08T10:21:13;8.00;99.90
23744;DHT22;12052;53.478;10.182;2024-03-08T10:23:40;8.10;99.90
23744;DHT22;12052;53.478;10.182;2024-03-08T10:26:18;8.10;99.90
23744;DHT22;12052;53.478;10.182;2024-03-08T10:28:50;8.20;99.90
23744;DHT22;12052;53.478;10.182;2024-03-08T10:31:17;8.40;99.90
23744;DHT22;12052;53.478;10.182;2024-03-08T10:33:43;8.20;99.90
23744;DHT22;12052;53.478;10.182;2024-03-08T10:36:10;8.30;99.90
23744;DHT22;12052;53.478;10.182;2024-03-08T10:38:37;8.20;99.90
23744;DHT22;12052;53.478;10.182;2024-03-08T10:41:06;8.30;99.90
23744;DHT22;12052;53.478;10.182;2024-03-08T10:43:36;8.30;99.90
23744;DHT22;12052;53.478;10.182;2024-03-08T10:46:30;8.10;99.90
23744;DHT22;12052;53.478;10.182;2024-03-08T10:48:57;8.00;99.90
23744;DHT22;12052;53.478;10.182;2024-03-08T10:51:28;8.10;99.90
23744;DHT22;12052;53.478;10.182;2024-03-08T10:53:55;7.80;99.90
23744;DHT22;12052;53.478;10.182;2024-03-08T10:56:22;8.00;99.90
23744;DHT22;12052;53.478;10.182;2024-03-08T10:58:48;8.20;99.90
23744;DHT22;12052;53.478;10.182;2024-03-08T11:01:14;8.20;99.90
23744;DHT22;12052;53.478;10.182;2024-03-08T11:09:01;8.00;99.90
23744;DHT22;12052;53.478;10.182;2024-03-08T11:11:33;8.20;99.90
23744;DHT22;12052;53.478;10.182;2024-03-08T11:14:02;8.30;99.90
23744;DHT22;12052;53.478;10.182;2024-03-08T11:18:55;8.50;99.90
23744;DHT22;12052;53.478;10.182;2024-03-08T11:21:25;8.50;99.90
23744;DHT22;12052;53.478;10.182;2024-03-08T11:24:02;8.30;99.90
23744;DHT22;12052;53.478;10.182;2024-03-08T11:26:31;8.20;99.90
23744;DHT22;12052;53.478;10.182;2024-03-08T11:32:05;8.20;99.90
23744;DHT22;12052;53.478;10.182;2024-03-08T11:34:32;8.30;99.90
23744;DHT22;12052;53.478;10.182;2024-03-08T11:36:58;8.30;99.90
23744;DHT22;12052;53.478;10.182;2024-03-08T11:39:25;8.40;99.90
23744;DHT22;12052;53.478;10.182;2024-03-08T11:41:50;8.30;99.90
23744;DHT22;12052;53.478;10.182;2024-03-08T11:44:17;8.20;99.90
23744;DHT22;12052;53.478;10.182;2024-03-08T11:46:43;8.20;99.90
23744;DHT22;12052;53.478;10.182;2024-03-08T11:49:13;8.10;99.90
23744;DHT22;12052;53.478;10.182;2024-03-08T11:51:39;8.00;99.90
23744;DHT22;12052;53.478;10.182;2024-03-08T11:54:06;8.00;99.90
23744;DHT22;12052;53.478;10.182;2024-03-08T11:56:35;8.10;99.90
23744;DHT22;12052;53.478;10.182;2024-03-08T11:59:01;8.20;99.90
23744;DHT22;12052;53.478;10.182;2024-03-08T12:01:28;8.20;99.90
23744;DHT22;12052;53.478;10.182;2024-03-08T12:03:54;8.30;99.90
23744;DHT22;12052;53.478;10.182;2024-03-08T12:06:20;8.30;99.90
23744;DHT22;12052;53.478;10.182;2024-03-08T12:08:46;8.40;99.90
23744;DHT22;12052;53.478;10.182;2024-03-08T12:11:14;8.50;99.90
23744;DHT22;12052;53.478;10.182;2024-03-08T12:13:41;8.50;99.90
23744;DHT22;12052;53.478;10.182;2024-03-08T12:16:07;8.40;99.90
23744;DHT22;12052;53.478;10.182;2024-03-08T12:18:36;8.40;99.90
23744;DHT22;12052;53.478;10.182;2024-03-08T12:21:10;8.40;99.90
23744;DHT22;12052;53.478;10.182;2024-03-08T12:23:37;8.60;99.90
23744;DHT22;12052;53.478;10.182;2024-03-08T12:26:15;8.60;99.90
23744;DHT22;12052;53.478;10.182;2024-03-08T12:28:45;8.70;99.90
23744;DHT22;12052;53.478;10.182;2024-03-08T12:31:16;8.70;99.90
23744;DHT22;12052;53.478;10.182;2024-03-08T12:36:18;8.50;99.90
23744;DHT22;12052;53.478;10.182;2024-03-08T12:38:47;8.50;99.90
23744;DHT22;12052;53.478;10.182;2024-03-08T12:41:20;8.60;99.90
23744;DHT22;12052;53.478;10.182;2024-03-08T12:43:46;8.60;99.90
23744;DHT22;12052;53.478;10.182;2024-03-08T12:46:14;8.70;99.90
23744;DHT22;12052;53.478;10.182;2024-03-08T12:48:40;8.70;99.90
23744;DHT22;12052;53.478;10.182;2024-03-08T12:51:09;8.70;99.90
23744;DHT22;12052;53.478;10.182;2024-03-08T12:53:35;8.60;99.90
23744;DHT22;12052;53.478;10.182;2024-03-08T12:56:01;8.60;99.90
23744;DHT22;12052;53.478;10.182;2024-03-08T12:58:29;8.70;99.90
23744;DHT22;12052;53.478;10.182;2024-03-08T13:00:54;8.80;99.90
23744;DHT22;12052;53.478;10.182;2024-03-08T13:03:20;8.80;99.90
23744;DHT22;12052;53.478;10.182;2024-03-08T13:05:48;8.90;99.90
23744;DHT22;12052;53.478;10.182;2024-03-08T13:08:14;8.80;99.90
23744;DHT22;12052;53.478;10.182;2024-03-08T13:10:41;8.80;99.90
23744;DHT22;12052;53.478;10.182;2024-03-08T13:13:11;8.90;99.90
23744;DHT22;12052;53.478;10.182;2024-03-08T13:15:37;8.80;99.90
23744;DHT22;12052;53.478;10.182;2024-03-08T13:18:05;8.90;99.90
23744;DHT22;12052;53.478;10.182;2024-03-08T13:20:34;8.90;99.90
23744;DHT22;12052;53.478;10.182;2024-03-08T13:23:03;9.00;99.90
23744;DHT22;12052;53.478;10.182;2024-03-08T13:25:30;9.00;99.90
23744;DHT22;12052;53.478;10.182;2024-03-08T13:27:56;9.00;99.90
23744;DHT22;12052;53.478;10.182;2024-03-08T13:30:24;9.00;99.90
23744;DHT22;12052;53.478;10.182;2024-03-08T13:32:52;9.00;99.90
23744;DHT22;12052;53.478;10.182;2024-03-08T13:35:18;9.00;99.90
23744;DHT22;12052;53.478;10.182;2024-03-08T13:37:50;9.00;99.90
23744;DHT22;12052;53.478;10.182;2024-03-08T13:40:17;9.00;99.90
23744;DHT22;12052;53.478;10.182;2024-03-08T13:42:46;9.10;99.90
23744;DHT22;12052;53.478;10.182;2024-03-08T13:45:12;9.00;99.90
23744;DHT22;12052;53.478;10.182;2024-03-08T13:47:39;9.00;99.90
23744;DHT22;12052;53.478;10.182;2024-03-08T13:50:09;8.90;99.90
23744;DHT22;12052;53.478;10.182;2024-03-08T13:52:38;9.00;99.90
23744;DHT22;12052;53.478;10.182;2024-03-08T13:55:05;9.00;99.90
23744;DHT22;12052;53.478;10.182;2024-03-08T13:57:32;8.90;99.90
23744;DHT22;12052;53.478;10.182;2024-03-08T13:59:58;8.90;99.90
23744;DHT22;12052;53.478;10.182;2024-03-08T14:02:23;9.00;99.90
23744;DHT22;12052;53.478;10.182;2024-03-08T14:04:53;9.00;99.90
23744;DHT22;12052;53.478;10.182;2024-03-08T14:07:20;9.00;99.90
23744;DHT22;12052;53.478;10.182;2024-03-08T14:09:46;9.00;99.90
23744;DHT22;12052;53.478;10.182;2024-03-08T14:12:12;9.10;99.90
23744;DHT22;12052;53.478;10.182;2024-03-08T14:14:40;9.10;99.90
23744;DHT22;12052;53.478;10.182;2024-03-08T14:17:07;9.10;99.90
23744;DHT22;12052;53.478;10.182;2024-03-08T14:19:35;9.00;99.90
23744;DHT22;12052;53.478;10.182;2024-03-08T14:22:00;9.00;99.90
23744;DHT22;12052;53.478;10.182;2024-03-08T14:24:29;9.10;99.90
23744;DHT22;12052;53.478;10.182;2024-03-08T14:26:55;9.00;99.90
23744;DHT22;12052;53.478;10.182;2024-03-08T14:29:21;9.10;99.90
23744;DHT22;12052;53.478;10.182;2024-03-08T14:31:46;9.00;99.90
23744;DHT22;12052;53.478;10.182;2024-03-08T14:34:12;9.00;99.90
23744;DHT22;12052;53.478;10.182;2024-03-08T14:36:39;9.10;99.90
23744;DHT22;12052;53.478;10.182;2024-03-08T14:39:05;9.00;99.90
23744;DHT22;12052;53.478;10.182;2024-03-08T14:41:33;9.10;99.90
23744;DHT22;12052;53.478;10.182;2024-03-08T14:43:58;9.00;99.90
23744;DHT22;12052;53.478;10.182;2024-03-08T14:46:25;9.00;99.90
23744;DHT22;12052;53.478;10.182;2024-03-08T14:48:52;9.00;99.90
23744;DHT22;12052;53.478;10.182;2024-03-08T14:51:19;9.00;99.90
23744;DHT22;12052;53.478;10.182;2024-03-08T14:53:48;8.90;99.90
23744;DHT22;12052;53.478;10.182;2024-03-08T14:56:15;8.90;99.90
23744;DHT22;12052;53.478;10.182;2024-03-08T14:58:47;8.90;99.90
23744;DHT22;12052;53.478;10.182;2024-03-08T15:01:17;8.80;99.90
23744;DHT22;12052;53.478;10.182;2024-03-08T15:03:50;8.80;99.90
23744;DHT22;12052;53.478;10.182;2024-03-08T15:06:16;8.80;99.90
23744;DHT22;12052;53.478;10.182;2024-03-08T15:08:45;8.80;99.90
23744;DHT22;12052;53.478;10.182;2024-03-08T15:11:11;8.80;99.90
23744;DHT22;12052;53.478;10.182;2024-03-08T15:13:37;8.70;99.90
23744;DHT22;12052;53.478;10.182;2024-03-08T15:16:07;8.70;99.90
23744;DHT22;12052;53.478;10.182;2024-03-08T15:18:34;8.70;99.90
23744;DHT22;12052;53.478;10.182;2024-03-08T15:21:04;8.80;99.90
23744;DHT22;12052;53.478;10.182;2024-03-08T15:23:35;8.80;99.90
23744;DHT22;12052;53.478;10.182;2024-03-08T15:26:02;8.80;99.90
23744;DHT22;12052;53.478;10.182;2024-03-08T15:28:29;8.80;99.90
23744;DHT22;12052;53.478;10.182;2024-03-08T15:31:06;8.70;99.90
23744;DHT22;12052;53.478;10.182;2024-03-08T15:33:33;8.70;99.90
23744;DHT22;12052;53.478;10.182;2024-03-08T15:35:59;8.60;99.90
23744;DHT22;12052;53.478;10.182;2024-03-08T15:38:29;8.60;99.90
23744;DHT22;12052;53.478;10.182;2024-03-08T15:40:55;8.50;99.90
23744;DHT22;12052;53.478;10.182;2024-03-08T15:43:21;8.50;99.90